Solnecnogorsk, Russia
Current Conditions -  °F | °C
As of 1:00 PM on Monday 20 Oct 2014 (Local Time) from UUEE Reporting Station
Light Rain Light Rain  
Wind Chill: 32°   Ceiling: 400
Heat Index: 36°   Visibility: 1.7mi
Dew Point: 34°   Wind: 4mph
Humidity: 93%   Direction: NA
Pressure: 29.38"   Gusts: NA
Location:  56.18°N, 36.96°E
Report Text: UUEE 201000Z VRB02MPS 2800 -RA BR OVC004 02/01 Q0995 7551024025////// NOSIG
Loading
Personal Weather Stations






























Interactive Weather Map
Tropical Storm Tracking
New forecast layout! Learn more

10-Day Weather Forecast

Advertisements
Track Severe Weather on mobile